KEYO2: Keystone Lake

Data processed at Fri Jul 13 2018 23:03


All information presented herein is the property of the government of the United States of America and may be revised or deleted at any time without prior notice.
Dissemination of this information without the expressed written consent of the Public Affairs Office, Tulsa District U.S. Army Corps of Engineers is strictly prohibited.
These data are gathered electronically and, as presented, have not undergone any form of quality control. These data are not guaranteed to be valid or correct.
Go to home page.
Go to station list.

Upstream stations:

Downstream station:
Previous Day
Next Day
Current Day
    
SHEF ID:       KEYO2     Keystone Lake
STATION TYPE:  Reservoir
Normal Pool:  Bottom =   706.00, Top =   723.00

               PRECIP ELEVATION   STORAGE   TW-ELEV    INFLOW   RELEASE  AIR-TEMP  WIND-DIRWIND-SPEED REL-HUMID SOLAR-RAD   VOLTAGE  BAT-LOAD
                   in        ft     ac-ft        ft       cfs       cfs         F       deg       mph         %      W/m2      volt      volt
              Ccp-Rev   Ccp-Rev   Ccp-Rev   Ccp-Rev  Regi-Rev  Regi-Rev   Ccp-Rev   Ccp-Rev   Ccp-Rev   Ccp-Rev   Ccp-Rev   Ccp-Rev   Ccp-Rev
(US/Central)
07/11 00:00      0.00    725.69    483175    638.46      4034        60     81.10    102.30      2.08     81.75      0.00     13.72     13.18
07/11 01:00      0.00    725.72    483850    638.10      3367        60     82.09    108.10      1.30     78.51      0.00     13.72     13.18
07/11 02:00      0.00    725.73    484075    637.99      4416        60     79.02    106.20      1.86     90.42      0.00     13.72     13.18
07/11 03:00      0.00    725.75    484525    637.95      4961        60     80.20     16.10      0.12     85.52      0.00     13.72     13.18
07/11 04:00      0.00    725.77    484975    637.94      4416        60     79.34    138.50      1.06     86.94      0.00     13.72     13.18
07/11 05:00      0.00    725.78    485200    637.94      4416        60     79.66    286.40      0.51     86.69      0.00     13.71     13.18
07/11 06:00      0.00    725.80    485650    637.92      3354        60     75.83    100.70      1.92     98.05      0.00     13.72     13.18
07/11 07:00      0.00    725.81    485875    637.92      2291        60     76.28     94.90      2.48     98.06     29.00     13.71     13.18
07/11 08:00      0.00    725.83    486325    637.92      1773        60     79.66     97.50      2.73     89.07    198.00     13.71     13.18
07/11 09:00      0.00    725.84    486550    637.92      1061        60     83.84     95.70      1.45     78.21    383.00     13.71     13.18
07/11 10:00      0.00    725.81    485875    639.03       892       460     88.70    102.00      2.06     61.42    568.00     13.72     13.24
07/11 11:00      0.00    725.83    486325    642.36      1242     11660     91.00    125.90      2.43     51.29    732.00     13.71     13.24
07/11 12:00      0.00    725.78    485200    642.45      1357     11660     91.33    119.00      2.62     47.81    803.00     13.72     13.18
07/11 13:00      0.00    725.74    484300    642.56      2017      1560     92.30    107.00      4.89     49.63    884.00     13.71     13.18
07/11 14:00      0.00    725.70    483400    642.59      1783     11660     92.64    134.90      5.39     49.33    811.00     13.71     13.18
07/11 15:00      0.00    725.67    482725    642.60      2093     11660     94.08    134.10      5.41     46.65    902.00     13.71     12.65
07/11 16:00      0.00    725.63    481825    642.65      2404     11660     95.72    125.00      5.99     41.70    744.00     13.71     13.18
07/11 17:00      0.00    725.60    481150    642.65      2948     11660     94.96    128.70      4.68     42.19    490.00     13.71     13.18
07/11 18:00      0.00    725.57    480475    642.63      2646     11660     94.73    125.00      7.18     42.98    423.00     13.71     12.65
07/11 19:00      0.00    725.54    479800    642.60      2888     11660     93.63    120.00      5.64     47.31    322.00     13.71     13.18
07/11 20:00      0.00    725.50    478900    642.65      4462     11660     91.31    116.50      5.88     55.56     98.00     13.71     13.18
07/11 21:00      0.00    725.47    478225    642.62      4067     11360     88.25    106.60      4.81     64.77     18.00     13.72     13.18
07/11 22:00      0.00    725.47    478225    641.89      3673     11360     85.50     96.30      2.03     70.15      0.00     13.72     13.18
07/11 23:00      0.00    725.45    477775    639.37      3289       260     84.07     88.30      1.59     76.07      0.00     13.72     13.18